Time;durP1;ratioP1;P1;durP2;ratioP2;P2;SDS_P1;SDS_P2;PMS_P1;PMS_P2;Temp;Humidity;BMP_temperature;BMP_pressure;BME280_temperature;BME280_humidity;BME280_pressure;Samples;Min_cycle;Max_cycle;Signal;HPM_P1;HPM_P2
2022/02/11 00:09:08;;;;;;;1.15;0.57;;;10.10;75.10;;;;;;20851411;28;20037;-86
2022/02/11 00:19:08;;;;;;;1.90;0.63;;;10.10;75.10;;;;;;20804833;28;20128;-86
2022/02/11 01:10:25;;;;;;;7.72;1.20;;;10.10;75.00;;;;;;20890788;28;20493;-86
2022/02/11 01:30:53;;;;;;;1.35;0.70;;;10.00;75.00;;;;;;20886048;28;20029;-86
2022/02/11 01:51:37;;;;;;;2.00;0.70;;;10.00;74.90;;;;;;20905134;28;20067;-84
2022/02/11 04:56:44;;;;;;;1.58;0.82;;;9.80;74.40;;;;;;21055436;28;20043;-85
2022/02/11 05:06:45;;;;;;;2.03;1.20;;;9.80;74.40;;;;;;21052437;28;20505;-85
2022/02/11 05:16:45;;;;;;;0.63;0.50;;;9.90;74.50;;;;;;21061952;28;20044;-83
2022/02/11 05:26:46;;;;;;;1.17;0.85;;;9.90;74.50;;;;;;21040103;28;20120;-82
2022/02/11 05:36:47;;;;;;;2.33;0.82;;;9.80;74.40;;;;;;21057955;28;20039;-80
2022/02/11 05:46:47;;;;;;;1.95;0.70;;;9.80;74.40;;;;;;21009517;28;20028;-76
2022/02/11 05:56:48;;;;;;;3.67;1.13;;;9.80;74.30;;;;;;20923263;28;20037;-80
2022/02/11 06:06:49;;;;;;;1.77;1.00;;;9.80;74.30;;;;;;20888751;28;20025;-79
2022/02/11 06:16:49;;;;;;;1.58;0.90;;;9.80;74.10;;;;;;20904669;28;20441;-77
2022/02/11 06:26:50;;;;;;;4.00;1.40;;;9.80;74.10;;;;;;20903438;28;20087;-80
2022/02/11 06:36:51;;;;;;;2.38;0.82;;;9.70;74.00;;;;;;20889624;28;20043;-75
2022/02/11 06:46:51;;;;;;;3.50;1.20;;;9.70;73.90;;;;;;20934765;28;20044;-77
2022/02/11 06:56:52;;;;;;;1.95;0.82;;;9.70;73.90;;;;;;20949345;28;20069;-79
2022/02/11 07:06:53;;;;;;;9.07;1.50;;;9.70;73.70;;;;;;20968402;28;20112;-78
2022/02/11 07:16:54;;;;;;;2.90;1.23;;;9.80;73.80;;;;;;20918676;28;20139;-77
2022/02/11 07:26:55;;;;;;;7.57;1.30;;;9.70;73.70;;;;;;20867648;28;20036;-78
2022/02/11 07:36:56;;;;;;;2.17;1.33;;;9.70;73.70;;;;;;20923174;28;20564;-78
2022/02/11 07:46:59;;;;;;;1.80;1.05;;;9.70;73.60;;;;;;20975263;28;20419;-78
2022/02/11 07:57:02;;;;;;;1.02;0.75;;;9.70;73.50;;;;;;20985683;28;20036;-77
2022/02/11 08:07:03;;;;;;;4.60;0.82;;;9.70;73.50;;;;;;20944127;28;20580;-77
2022/02/11 08:17:03;;;;;;;1.15;0.90;;;9.70;73.50;;;;;;20959584;28;20107;-77
2022/02/11 08:27:05;;;;;;;1.15;0.65;;;9.60;73.50;;;;;;20977045;28;20475;-79
2022/02/11 08:37:07;;;;;;;1.60;0.70;;;9.60;73.50;;;;;;20967839;28;20056;-77
2022/02/11 08:47:08;;;;;;;2.15;1.00;;;9.60;73.50;;;;;;20977086;28;20043;-77
2022/02/11 08:57:09;;;;;;;2.85;0.70;;;9.70;73.60;;;;;;20939706;28;20234;-81
2022/02/11 09:07:14;;;;;;;1.13;0.85;;;9.60;73.50;;;;;;20923557;28;20045;-75
2022/02/11 09:17:14;;;;;;;2.22;0.73;;;9.60;73.60;;;;;;20890891;28;20032;-76
2022/02/11 09:27:17;;;;;;;3.67;1.55;;;9.70;73.60;;;;;;20889920;28;20062;-75
2022/02/11 09:37:18;;;;;;;3.30;1.35;;;9.70;73.50;;;;;;20892571;28;20120;-73
2022/02/11 09:47:22;;;;;;;1.98;1.13;;;9.60;73.50;;;;;;20918144;28;20032;-75
2022/02/11 09:57:23;;;;;;;2.13;1.20;;;9.70;73.60;;;;;;21018463;28;20032;-75
2022/02/11 10:07:23;;;;;;;2.92;1.27;;;9.70;73.60;;;;;;20993642;28;20040;-76
2022/02/11 10:17:25;;;;;;;1.98;1.20;;;9.70;73.60;;;;;;20984199;28;20424;-80
2022/02/11 10:27:30;;;;;;;2.47;1.20;;;9.70;73.70;;;;;;20948058;28;20028;-78
2022/02/11 10:37:33;;;;;;;;;;;9.60;73.60;;;;;;20953265;28;20060;-77
2022/02/11 10:47:39;;;;;;;0.83;0.80;;;9.60;73.70;;;;;;20964563;28;19923;-79
2022/02/11 10:57:43;;;;;;;2.20;0.75;;;9.60;73.70;;;;;;20884669;28;20320;-78
2022/02/11 11:07:44;;;;;;;3.38;0.90;;;9.50;73.70;;;;;;20947926;28;20123;-76
2022/02/11 11:17:45;;;;;;;3.78;1.98;;;9.60;74.40;;;;;;20947997;28;20511;-77
2022/02/11 11:27:57;;;;;;;2.17;0.60;;;9.60;73.90;;;;;;20902465;28;20079;-80
2022/02/11 11:38:10;;;;;;;2.08;0.80;;;9.70;74.10;;;;;;20883709;28;20044;-81
2022/02/11 11:48:15;;;;;;;2.55;0.50;;;9.60;74.20;;;;;;20880620;28;20047;-73
2022/02/11 11:58:43;;;;;;;1.95;0.50;;;9.60;74.30;;;;;;20948241;28;20043;-78
2022/02/11 12:08:46;;;;;;;;;;;9.60;74.40;;;;;;20949058;28;20036;-85
2022/02/11 12:18:50;;;;;;;0.82;0.40;;;9.60;74.50;;;;;;20981539;28;20275;-83
2022/02/11 12:28:50;;;;;;;0.52;0.40;;;9.60;74.40;;;;;;20945217;28;20538;-75
2022/02/11 12:39:00;;;;;;;0.98;0.55;;;9.60;74.50;;;;;;20941714;28;20040;-76
2022/02/11 12:49:00;;;;;;;0.35;0.30;;;9.60;74.60;;;;;;20944394;28;20040;-77
2022/02/11 12:59:06;;;;;;;0.57;0.40;;;9.60;74.60;;;;;;20930763;28;20052;-74
2022/02/11 13:09:11;;;;;;;1.35;0.40;;;9.50;74.60;;;;;;20934610;28;20120;-73
2022/02/11 13:19:13;;;;;;;1.70;0.32;;;9.50;74.60;;;;;;20931412;28;20044;-75
2022/02/11 13:29:22;;;;;;;1.08;0.45;;;9.50;74.60;;;;;;20988810;28;20161;-75
2022/02/11 13:39:28;;;;;;;2.00;0.40;;;9.50;74.60;;;;;;21012193;28;20428;-75
2022/02/11 13:49:37;;;;;;;1.15;1.05;;;9.50;74.50;;;;;;20956773;28;20055;-74
2022/02/11 13:59:39;;;;;;;0.68;0.32;;;9.60;74.50;;;;;;20990759;28;20098;-78
2022/02/11 14:09:40;;;;;;;5.87;0.63;;;9.60;74.40;;;;;;20950765;28;20044;-75
2022/02/11 14:19:44;;;;;;;1.17;0.65;;;9.50;74.30;;;;;;20985379;28;20291;-76
2022/02/11 14:29:45;;;;;;;0.93;0.60;;;9.60;74.40;;;;;;20965922;28;20495;-75
2022/02/11 14:39:46;;;;;;;2.13;0.85;;;9.50;74.30;;;;;;20853515;28;20036;-76
2022/02/11 14:49:47;;;;;;;7.07;1.00;;;9.50;74.30;;;;;;20886121;28;20051;-74
2022/02/11 14:59:47;;;;;;;4.80;1.00;;;9.50;74.20;;;;;;20886395;28;20455;-74
2022/02/11 15:09:48;;;;;;;2.63;1.02;;;9.50;74.10;;;;;;20950838;28;20040;-75
2022/02/11 15:19:49;;;;;;;0.90;0.60;;;9.60;74.10;;;;;;20949065;28;20033;-79
2022/02/11 15:29:50;;;;;;;1.92;1.08;;;9.60;74.20;;;;;;20980084;28;20532;-75
2022/02/11 15:39:50;;;;;;;2.63;1.00;;;9.60;74.20;;;;;;20962954;28;20051;-75
2022/02/11 15:49:52;;;;;;;1.93;1.10;;;9.50;74.10;;;;;;20963359;28;20286;-75
2022/02/11 15:59:52;;;;;;;6.00;0.93;;;9.50;74.10;;;;;;20979161;28;20267;-74
2022/02/11 16:09:56;;;;;;;4.83;1.10;;;9.50;74.10;;;;;;20993745;28;20112;-74
2022/02/11 16:19:57;;;;;;;2.35;0.90;;;9.50;74.00;;;;;;20959606;28;20886;-73
2022/02/11 16:29:57;;;;;;;3.03;1.40;;;9.50;73.70;;;;;;20945123;28;20032;-73
2022/02/11 16:39:58;;;;;;;2.72;1.38;;;9.50;73.60;;;;;;20953847;28;20086;-73
2022/02/11 16:49:58;;;;;;;3.22;1.20;;;9.50;73.50;;;;;;20959988;28;20109;-73
2022/02/11 16:59:59;;;;;;;0.80;0.75;;;9.50;73.40;;;;;;20938195;28;20470;-74
2022/02/11 17:10:03;;;;;;;4.78;1.70;;;9.50;73.40;;;;;;20959636;28;20121;-78
2022/02/11 17:20:05;;;;;;;3.05;1.30;;;9.40;73.30;;;;;;21028504;28;20051;-74
2022/02/11 17:30:09;;;;;;;1.73;0.90;;;9.50;73.20;;;;;;21018039;28;20123;-70
2022/02/11 17:40:11;;;;;;;1.60;0.80;;;9.50;73.20;;;;;;20950272;28;20028;-73
2022/02/11 17:50:11;;;;;;;3.60;1.15;;;9.50;73.20;;;;;;20967709;28;20483;-73
2022/02/11 18:00:12;;;;;;;2.42;1.02;;;9.50;73.20;;;;;;20972979;28;20056;-71
2022/02/11 18:10:14;;;;;;;5.28;1.00;;;9.40;73.10;;;;;;20985398;28;20066;-72
2022/02/11 18:20:15;;;;;;;2.40;1.00;;;9.40;73.00;;;;;;20953064;28;20483;-77
2022/02/11 18:30:18;;;;;;;2.08;1.10;;;9.40;73.00;;;;;;20955031;28;20065;-74
2022/02/11 18:40:18;;;;;;;2.88;1.00;;;9.40;72.90;;;;;;20971971;28;20040;-77
2022/02/11 18:50:19;;;;;;;5.00;2.65;;;9.40;73.50;;;;;;20966800;28;20483;-75
2022/02/11 19:00:25;;;;;;;2.13;1.27;;;9.30;72.70;;;;;;20963302;28;20712;-76
2022/02/11 19:10:26;;;;;;;3.30;1.17;;;9.30;72.60;;;;;;20948916;28;20039;-76
2022/02/11 19:20:29;;;;;;;4.00;1.30;;;9.30;73.30;;;;;;20946666;28;20063;-76
2022/02/11 19:30:30;;;;;;;2.40;1.25;;;9.30;72.60;;;;;;20945821;28;20355;-76
2022/02/11 19:40:36;;;;;;;3.08;1.23;;;9.30;72.60;;;;;;20960194;28;20064;-82
2022/02/11 19:50:37;;;;;;;2.67;1.30;;;9.30;72.50;;;;;;20947623;28;20044;-80
2022/02/11 20:00:37;;;;;;;5.05;1.13;;;9.30;72.60;;;;;;20946209;28;20056;-79
2022/02/11 20:10:38;;;;;;;3.50;1.42;;;9.40;72.60;;;;;;20945520;28;20037;-79
2022/02/11 20:20:41;;;;;;;2.50;1.30;;;9.30;72.50;;;;;;20944436;28;20033;-79
2022/02/11 20:30:47;;;;;;;2.08;1.10;;;9.30;72.40;;;;;;21336965;22;20045;-81
2022/02/11 20:40:48;;;;;;;3.95;1.30;;;9.30;72.50;;;;;;20862423;28;20110;-80
2022/02/11 20:50:49;;;;;;;6.03;1.17;;;9.20;72.40;;;;;;20876739;28;20083;-79
2022/02/11 21:00:51;;;;;;;4.18;1.27;;;9.30;72.40;;;;;;20861048;28;20499;-80
2022/02/11 21:10:51;;;;;;;4.47;1.10;;;9.30;72.30;;;;;;20876775;28;20086;-79
2022/02/11 21:20:52;;;;;;;2.80;1.10;;;9.20;72.20;;;;;;20910765;28;20036;-81
2022/02/11 21:30:52;;;;;;;2.10;0.82;;;9.20;72.20;;;;;;20876286;28;20142;-80
2022/02/11 21:40:54;;;;;;;2.33;1.73;;;9.20;72.10;;;;;;20893311;28;20383;-80
2022/02/11 21:50:54;;;;;;;2.08;1.02;;;9.20;72.00;;;;;;20857366;28;20398;-81
2022/02/11 22:00:55;;;;;;;4.40;1.43;;;9.20;72.00;;;;;;20885919;28;20033;-80
2022/02/11 22:10:56;;;;;;;2.28;1.10;;;9.10;71.90;;;;;;20918241;28;20860;-81
2022/02/11 22:20:56;;;;;;;4.55;1.58;;;9.10;71.90;;;;;;20884328;28;20033;-80
2022/02/11 22:30:57;;;;;;;2.53;1.05;;;9.10;71.90;;;;;;20917594;28;20079;-81
2022/02/11 22:40:59;;;;;;;2.05;1.42;;;9.10;71.80;;;;;;20898957;28;20216;-81
2022/02/11 23:01:19;;;;;;;1.65;1.08;;;9.10;71.70;;;;;;20900205;28;20028;-81
2022/02/11 23:11:31;;;;;;;3.03;1.30;;;9.10;71.70;;;;;;20881104;28;20498;-81
2022/02/11 23:21:32;;;;;;;2.42;0.98;;;9.10;71.60;;;;;;20880727;28;20033;-82
2022/02/11 23:31:32;;;;;;;3.60;1.05;;;9.10;71.50;;;;;;20892546;28;20040;-80
2022/02/11 23:41:33;;;;;;;2.03;1.15;;;9.00;71.40;;;;;;20911602;28;20395;-80
2022/02/11 23:51:34;;;;;;;5.55;1.33;;;9.00;71.40;;;;;;20910483;28;20072;-81
